createdAt,value
2023-12-11T00:00:57.262Z,1.90
2023-12-11T00:03:24.321Z,1.60
2023-12-11T00:05:51.477Z,1.50
2023-12-11T00:08:18.423Z,1.40
2023-12-11T00:10:45.320Z,1.40
2023-12-11T00:13:12.858Z,1.30
2023-12-11T00:15:42.993Z,1.30
2023-12-11T00:18:10.057Z,1.30
2023-12-11T00:20:37.463Z,1.40
2023-12-11T00:23:04.345Z,1.50
2023-12-11T00:25:32.850Z,1.50
2023-12-11T00:27:59.775Z,1.50
2023-12-11T00:30:26.691Z,1.50
2023-12-11T00:32:54.552Z,1.40
2023-12-11T00:35:21.461Z,1.40
2023-12-11T00:37:48.432Z,1.40
2023-12-11T00:40:15.459Z,1.50
2023-12-11T00:42:42.429Z,1.40
2023-12-11T00:45:12.354Z,1.40
2023-12-11T00:47:39.269Z,1.40
2023-12-11T00:50:07.537Z,1.20
2023-12-11T00:52:34.838Z,1.20
2023-12-11T00:55:01.814Z,1.20
2023-12-11T00:57:28.992Z,1.30
2023-12-11T00:59:56.118Z,1.30
2023-12-11T01:02:23.070Z,1.30
2023-12-11T01:04:50.082Z,1.20
2023-12-11T01:07:17.024Z,1.20
2023-12-11T01:09:43.949Z,1.20
2023-12-11T01:12:10.875Z,1.30
2023-12-11T01:14:38.986Z,1.00
2023-12-11T01:17:36.431Z,1.00
2023-12-11T01:19:52.897Z,1.10
2023-12-11T01:22:19.856Z,1.20
2023-12-11T01:24:46.821Z,1.20
2023-12-11T01:27:13.759Z,1.10
2023-12-11T01:29:40.666Z,1.00
2023-12-11T01:32:07.571Z,1.00
2023-12-11T01:34:34.766Z,0.90
2023-12-11T01:37:01.978Z,1.00
2023-12-11T01:39:29.012Z,1.00
2023-12-11T01:41:55.951Z,1.00
2023-12-11T01:44:22.847Z,1.00
2023-12-11T01:46:49.769Z,1.00
2023-12-11T01:49:17.212Z,1.10
2023-12-11T01:51:44.253Z,1.10
2023-12-11T01:54:11.352Z,0.90
2023-12-11T01:56:38.860Z,0.90
2023-12-11T01:59:05.938Z,1.00
2023-12-11T02:01:33.011Z,1.40
2023-12-11T02:04:00.661Z,1.20
2023-12-11T02:06:27.693Z,1.10
2023-12-11T02:08:54.942Z,1.00
2023-12-11T02:11:21.926Z,1.00
2023-12-11T02:13:48.837Z,1.00
2023-12-11T02:16:17.354Z,1.10
2023-12-11T02:18:45.403Z,1.10
2023-12-11T02:21:12.911Z,1.00
2023-12-11T02:24:38.362Z,0.90
2023-12-11T02:27:05.491Z,0.90
2023-12-11T02:29:32.430Z,1.00
2023-12-11T02:31:59.322Z,1.00
2023-12-11T02:34:26.365Z,1.00
2023-12-11T02:36:53.368Z,1.00
2023-12-11T02:39:20.294Z,1.00
2023-12-11T02:41:47.209Z,1.10
2023-12-11T02:44:14.311Z,1.10
2023-12-11T02:46:41.280Z,1.20
2023-12-11T02:49:08.363Z,1.30
2023-12-11T02:51:35.473Z,1.20
2023-12-11T02:54:02.442Z,1.20
2023-12-11T02:56:29.351Z,1.20
2023-12-11T02:58:56.288Z,1.20
2023-12-11T03:01:23.250Z,1.20
2023-12-11T03:03:50.302Z,1.20
2023-12-11T03:06:23.519Z,1.20
2023-12-11T03:08:50.504Z,1.20
2023-12-11T03:11:17.467Z,1.30
2023-12-11T03:13:44.354Z,1.30
2023-12-11T03:16:14.806Z,1.60
2023-12-11T03:18:42.752Z,1.30
2023-12-11T03:21:10.395Z,1.40
2023-12-11T03:23:38.451Z,1.40
2023-12-11T03:26:05.488Z,1.40
2023-12-11T03:28:32.947Z,1.40
2023-12-11T03:30:59.907Z,1.50
2023-12-11T03:33:26.877Z,1.50
2023-12-11T03:35:53.785Z,1.50
2023-12-11T03:38:20.689Z,1.50
2023-12-11T03:40:47.564Z,1.50
2023-12-11T03:43:14.694Z,1.50
2023-12-11T03:45:41.710Z,1.50
2023-12-11T03:48:09.106Z,1.60
2023-12-11T03:50:36.097Z,1.60
2023-12-11T03:53:03.056Z,1.60
2023-12-11T03:55:30.052Z,1.60
2023-12-11T03:57:56.986Z,1.70
2023-12-11T04:00:24.026Z,1.60
2023-12-11T04:02:50.933Z,1.60
2023-12-11T04:05:17.907Z,1.60
2023-12-11T04:07:44.888Z,1.70
2023-12-11T04:10:12.083Z,1.70
2023-12-11T04:12:40.955Z,1.70
2023-12-11T04:15:08.410Z,1.80
2023-12-11T04:17:35.724Z,1.80
2023-12-11T04:20:03.301Z,1.80
2023-12-11T04:22:30.476Z,1.90
2023-12-11T04:24:57.424Z,1.90
2023-12-11T04:27:24.322Z,1.90
2023-12-11T04:29:51.266Z,1.70
2023-12-11T04:32:19.129Z,1.70
2023-12-11T04:34:46.145Z,1.70
2023-12-11T04:37:13.144Z,1.80
2023-12-11T04:39:40.220Z,1.80
2023-12-11T04:42:07.199Z,1.70
2023-12-11T04:44:34.133Z,1.80
2023-12-11T04:47:01.031Z,1.80
2023-12-11T04:49:28.041Z,1.80
2023-12-11T04:51:55.298Z,1.80
2023-12-11T04:54:22.283Z,1.80
2023-12-11T04:56:49.256Z,1.80
2023-12-11T04:59:16.172Z,1.80
2023-12-11T05:01:43.152Z,1.90
2023-12-11T05:04:10.536Z,1.90
2023-12-11T05:06:37.532Z,1.90
2023-12-11T05:09:04.481Z,2.00
2023-12-11T05:11:31.954Z,2.00
2023-12-11T05:13:58.865Z,2.10
2023-12-11T05:16:27.763Z,2.10
2023-12-11T05:18:55.153Z,2.20
2023-12-11T05:21:23.275Z,2.20
2023-12-11T05:23:51.421Z,2.20
2023-12-11T05:26:21.176Z,2.30
2023-12-11T05:28:49.024Z,2.30
2023-12-11T05:31:16.366Z,2.30
2023-12-11T05:33:43.504Z,2.30
2023-12-11T05:36:10.912Z,2.20
2023-12-11T05:38:37.846Z,2.10
2023-12-11T05:41:05.231Z,2.10
2023-12-11T05:43:32.271Z,2.10
2023-12-11T05:45:59.534Z,2.10
2023-12-11T05:48:26.615Z,2.20
2023-12-11T05:50:53.595Z,2.30
2023-12-11T05:53:20.538Z,2.30
2023-12-11T05:55:47.511Z,2.30
2023-12-11T05:58:14.581Z,2.30
2023-12-11T06:00:41.669Z,2.30
2023-12-11T06:03:08.821Z,2.30
2023-12-11T06:05:35.867Z,2.30
2023-12-11T06:08:03.350Z,2.20
2023-12-11T06:10:31.005Z,2.20
2023-12-11T06:12:57.978Z,2.20
2023-12-11T06:15:24.924Z,2.10
2023-12-11T06:17:51.965Z,2.20
2023-12-11T06:20:18.935Z,2.30
2023-12-11T06:22:49.133Z,2.40
2023-12-11T06:25:16.376Z,2.50
2023-12-11T06:27:43.404Z,2.40
2023-12-11T06:30:10.747Z,2.30
2023-12-11T06:32:37.693Z,2.30
2023-12-11T06:35:05.207Z,2.10
2023-12-11T06:37:32.342Z,2.10
2023-12-11T06:39:59.475Z,2.20
2023-12-11T06:42:26.501Z,2.30
2023-12-11T06:44:54.706Z,2.30
2023-12-11T06:47:21.661Z,2.20
2023-12-11T06:49:48.848Z,2.10
2023-12-11T06:52:17.204Z,2.00
2023-12-11T06:54:44.454Z,1.90
2023-12-11T06:57:11.344Z,2.00
2023-12-11T06:59:38.430Z,1.90
2023-12-11T07:02:05.815Z,2.00
2023-12-11T07:04:33.035Z,1.90
2023-12-11T07:07:00.168Z,1.90
2023-12-11T07:09:30.969Z,2.00
2023-12-11T07:11:57.977Z,2.00
2023-12-11T07:14:25.490Z,2.10
2023-12-11T07:16:53.033Z,2.10
2023-12-11T07:19:22.903Z,2.00
2023-12-11T07:21:50.022Z,2.00
2023-12-11T07:24:16.936Z,2.00
2023-12-11T07:26:43.790Z,2.00
2023-12-11T07:29:10.811Z,2.10
2023-12-11T07:31:37.899Z,2.20
2023-12-11T07:34:04.904Z,2.20
2023-12-11T07:36:31.974Z,2.20
2023-12-11T07:38:58.878Z,2.20
2023-12-11T07:41:25.907Z,2.20
2023-12-11T07:43:52.831Z,2.30
2023-12-11T07:46:25.664Z,2.30
2023-12-11T07:48:53.389Z,2.30
2023-12-11T07:51:21.675Z,2.40
2023-12-11T07:53:49.188Z,2.40
2023-12-11T07:56:23.146Z,2.40
2023-12-11T07:58:51.900Z,2.30
2023-12-11T08:01:19.463Z,2.30
2023-12-11T08:03:46.879Z,2.40
2023-12-11T08:06:14.014Z,2.50
2023-12-11T08:08:47.114Z,2.60
2023-12-11T08:11:26.044Z,2.70
2023-12-11T08:13:53.202Z,2.80
2023-12-11T08:16:21.307Z,2.80
2023-12-11T08:18:49.552Z,2.60
2023-12-11T08:21:19.935Z,2.60
2023-12-11T08:23:49.078Z,2.50
2023-12-11T08:26:20.163Z,2.50
2023-12-11T08:28:48.224Z,2.40
2023-12-11T08:31:15.198Z,2.50
2023-12-11T08:33:42.421Z,2.40
2023-12-11T08:36:09.991Z,2.40
2023-12-11T08:38:36.989Z,2.40
2023-12-11T08:41:04.029Z,2.40
2023-12-11T08:43:30.958Z,2.40
2023-12-11T08:45:58.558Z,2.40
2023-12-11T08:48:28.466Z,2.40
2023-12-11T08:50:56.052Z,2.50
2023-12-11T08:53:23.426Z,2.60
2023-12-11T08:55:51.120Z,2.80
2023-12-11T08:58:18.170Z,2.80
2023-12-11T09:00:45.888Z,2.90
2023-12-11T09:03:13.006Z,3.10
2023-12-11T09:05:39.971Z,3.00
2023-12-11T09:08:07.029Z,3.10
2023-12-11T09:10:37.150Z,3.20
2023-12-11T09:13:04.325Z,3.30
2023-12-11T09:15:31.443Z,3.40
2023-12-11T09:17:58.454Z,3.40
2023-12-11T09:20:25.473Z,3.30
2023-12-11T09:22:52.491Z,3.20
2023-12-11T09:25:19.630Z,3.30
2023-12-11T09:27:48.760Z,3.40
2023-12-11T09:30:16.307Z,3.50
2023-12-11T09:32:43.654Z,3.90
2023-12-11T09:35:12.343Z,4.00
2023-12-11T09:37:39.371Z,3.90
2023-12-11T09:40:08.005Z,4.00
2023-12-11T09:42:39.436Z,4.20
2023-12-11T09:45:07.978Z,4.10
2023-12-11T09:47:47.327Z,4.10
2023-12-11T09:50:17.472Z,4.10
2023-12-11T09:52:44.873Z,4.20
2023-12-11T09:55:12.191Z,4.30
2023-12-11T09:57:41.321Z,4.60
2023-12-11T10:00:14.420Z,4.70
2023-12-11T10:02:43.510Z,4.70
2023-12-11T10:05:12.455Z,4.60
2023-12-11T10:07:42.853Z,4.60
2023-12-11T10:10:22.970Z,4.60
2023-12-11T10:12:50.313Z,4.70
2023-12-11T10:15:21.741Z,4.80
2023-12-11T10:18:02.170Z,4.90
2023-12-11T10:20:29.694Z,4.80
2023-12-11T10:22:59.445Z,4.80
2023-12-11T10:25:29.508Z,4.90
2023-12-11T10:28:07.304Z,5.00
2023-12-11T10:30:42.332Z,5.00
2023-12-11T10:33:11.128Z,5.00
2023-12-11T10:35:38.249Z,5.10
2023-12-11T10:38:05.301Z,5.10
2023-12-11T10:40:43.069Z,5.20
2023-12-11T10:43:10.212Z,5.20
2023-12-11T10:45:37.518Z,5.10
2023-12-11T10:48:05.028Z,5.10
2023-12-11T10:50:32.653Z,5.20
2023-12-11T10:53:04.939Z,5.10
2023-12-11T10:55:32.359Z,5.10
2023-12-11T10:57:59.580Z,5.00
2023-12-11T11:00:28.895Z,5.10
2023-12-11T11:02:58.668Z,5.10
2023-12-11T11:05:28.648Z,5.10
2023-12-11T11:08:22.359Z,5.20
2023-12-11T11:11:00.778Z,5.30
2023-12-11T11:13:54.752Z,5.30
2023-12-11T11:16:21.707Z,5.40
2023-12-11T11:19:08.019Z,5.50
2023-12-11T11:21:35.023Z,5.60
2023-12-11T11:24:01.993Z,5.70
2023-12-11T11:26:36.772Z,5.70
2023-12-11T11:29:05.373Z,5.70
2023-12-11T11:31:50.562Z,5.70
2023-12-11T11:34:40.277Z,5.70
2023-12-11T11:37:15.660Z,5.80
2023-12-11T11:40:03.373Z,5.70
2023-12-11T11:42:33.494Z,5.70
2023-12-11T11:45:03.655Z,5.70
2023-12-11T11:47:31.195Z,5.70
2023-12-11T11:50:06.201Z,5.70
2023-12-11T11:52:33.392Z,5.60
2023-12-11T11:55:27.617Z,5.50
2023-12-11T11:57:55.540Z,5.50
2023-12-11T12:00:26.696Z,5.60
2023-12-11T12:03:01.954Z,5.60
2023-12-11T12:05:28.944Z,5.60
2023-12-11T12:07:56.393Z,5.60
2023-12-11T12:10:23.756Z,5.40
2023-12-11T12:13:00.547Z,5.40
2023-12-11T12:15:28.509Z,5.30
2023-12-11T12:18:07.088Z,5.40
2023-12-11T12:20:34.148Z,5.50
2023-12-11T12:23:04.718Z,5.50
2023-12-11T12:25:33.478Z,5.40
2023-12-11T12:28:13.622Z,5.30
2023-12-11T12:30:40.908Z,5.40
2023-12-11T12:33:13.046Z,5.40
2023-12-11T12:35:41.557Z,5.40
2023-12-11T12:38:09.374Z,5.50
2023-12-11T12:40:36.709Z,5.50
2023-12-11T12:43:14.569Z,5.40
2023-12-11T12:45:42.574Z,5.20
2023-12-11T12:48:10.140Z,5.20
2023-12-11T12:50:37.787Z,5.20
2023-12-11T12:53:09.617Z,5.00
2023-12-11T12:55:37.880Z,4.80
2023-12-11T12:58:05.704Z,4.70
2023-12-11T13:00:35.947Z,4.60
2023-12-11T13:03:04.744Z,4.60
2023-12-11T13:05:41.837Z,4.50
2023-12-11T13:08:09.005Z,4.60
2023-12-11T13:10:36.017Z,4.70
2023-12-11T13:13:15.526Z,4.60
2023-12-11T13:15:46.460Z,4.40
2023-12-11T13:18:16.797Z,4.30
2023-12-11T13:20:44.425Z,4.30
2023-12-11T13:23:11.526Z,4.30
2023-12-11T13:25:38.834Z,4.30
2023-12-11T13:28:05.817Z,4.30
2023-12-11T13:30:32.733Z,4.20
2023-12-11T13:33:00.170Z,4.00
2023-12-11T13:35:27.209Z,4.00
2023-12-11T13:37:54.086Z,3.90
2023-12-11T13:40:22.198Z,3.80
2023-12-11T13:42:49.704Z,3.80
2023-12-11T13:45:17.450Z,3.80
2023-12-11T13:47:44.373Z,3.70
2023-12-11T13:50:11.387Z,3.70
2023-12-11T13:52:38.446Z,3.60
2023-12-11T13:55:05.972Z,3.70
2023-12-11T13:57:35.031Z,3.70
2023-12-11T14:00:01.976Z,3.70
2023-12-11T14:02:58.856Z,3.70
2023-12-11T14:05:16.508Z,3.60
2023-12-11T14:07:43.509Z,3.50
2023-12-11T14:10:11.356Z,3.40
2023-12-11T14:12:39.434Z,3.30
2023-12-11T14:15:07.077Z,3.20
2023-12-11T14:17:34.686Z,3.10
2023-12-11T14:20:02.541Z,3.00
2023-12-11T14:22:31.438Z,2.80
2023-12-11T14:24:58.379Z,2.90
2023-12-11T14:27:25.394Z,2.80
2023-12-11T14:29:53.262Z,2.80
2023-12-11T14:32:20.457Z,2.80
2023-12-11T14:34:47.561Z,2.90
2023-12-11T14:37:15.294Z,3.00
2023-12-11T14:39:43.169Z,3.00
2023-12-11T14:42:10.913Z,3.10
2023-12-11T14:44:39.937Z,3.00
2023-12-11T14:47:09.794Z,2.80
2023-12-11T14:49:36.800Z,2.70
2023-12-11T14:52:04.019Z,2.70
2023-12-11T14:54:30.964Z,2.70
2023-12-11T14:56:58.137Z,2.60
2023-12-11T14:59:25.314Z,2.60
2023-12-11T15:01:52.479Z,2.50
2023-12-11T15:04:19.548Z,2.50
2023-12-11T15:06:46.960Z,2.50
2023-12-11T15:09:16.581Z,2.60
2023-12-11T15:11:43.915Z,2.50
2023-12-11T15:14:13.218Z,2.60
2023-12-11T15:16:42.469Z,2.60
2023-12-11T15:19:10.104Z,2.60
2023-12-11T15:21:37.692Z,2.60
2023-12-11T15:24:04.980Z,2.70
2023-12-11T15:26:31.883Z,2.70
2023-12-11T15:29:03.161Z,2.80
2023-12-11T15:31:30.444Z,2.90
2023-12-11T15:33:57.510Z,2.90
2023-12-11T15:36:24.522Z,2.90
2023-12-11T15:38:51.673Z,2.90
2023-12-11T15:41:19.057Z,2.80
2023-12-11T15:43:49.127Z,2.70
2023-12-11T15:46:19.325Z,2.70
2023-12-11T15:48:48.018Z,3.00
2023-12-11T15:51:17.273Z,2.70
2023-12-11T15:53:46.024Z,2.60
2023-12-11T15:56:19.709Z,2.60
2023-12-11T15:58:46.886Z,2.70
2023-12-11T16:01:16.008Z,2.60
2023-12-11T16:03:43.219Z,2.70
2023-12-11T16:06:10.239Z,2.70
2023-12-11T16:08:37.693Z,2.70
2023-12-11T16:11:05.084Z,2.70
2023-12-11T16:13:32.012Z,2.70
2023-12-11T16:15:59.189Z,2.70
2023-12-11T16:18:26.262Z,2.70
2023-12-11T16:20:53.335Z,2.80
2023-12-11T16:23:20.229Z,2.90
2023-12-11T16:25:56.098Z,2.80
2023-12-11T16:28:29.545Z,2.90
2023-12-11T16:30:56.727Z,2.80
2023-12-11T16:33:25.137Z,2.80
2023-12-11T16:35:52.204Z,2.80
2023-12-11T16:38:19.288Z,2.80
2023-12-11T16:40:46.253Z,2.70
2023-12-11T16:43:13.281Z,2.80
2023-12-11T16:45:44.640Z,2.80
2023-12-11T16:48:12.123Z,2.80
2023-12-11T16:50:39.826Z,2.90
2023-12-11T16:53:07.717Z,2.90
2023-12-11T16:55:34.693Z,2.90
2023-12-11T16:58:01.677Z,2.90
2023-12-11T17:00:28.910Z,2.90
2023-12-11T17:02:56.289Z,2.90
2023-12-11T17:05:23.329Z,3.00
2023-12-11T17:07:50.274Z,3.00
2023-12-11T17:10:17.475Z,3.10
2023-12-11T17:12:44.487Z,3.10
2023-12-11T17:15:11.427Z,3.10
2023-12-11T17:17:38.684Z,3.10
2023-12-11T17:20:06.174Z,3.00
2023-12-11T17:22:33.393Z,2.90
2023-12-11T17:25:00.974Z,2.90
2023-12-11T17:27:28.218Z,3.00
2023-12-11T17:29:55.232Z,3.10
2023-12-11T17:32:22.126Z,3.10
2023-12-11T17:34:49.296Z,3.10
2023-12-11T17:37:16.566Z,3.20
2023-12-11T17:39:43.695Z,3.20
2023-12-11T17:42:10.826Z,3.20
2023-12-11T17:44:37.685Z,3.30
2023-12-11T17:47:04.854Z,3.30
2023-12-11T17:49:31.819Z,3.40
2023-12-11T17:51:58.785Z,3.40
2023-12-11T17:54:25.710Z,3.40
2023-12-11T17:56:52.600Z,3.40
2023-12-11T17:59:19.532Z,3.40
2023-12-11T18:01:46.930Z,3.30
2023-12-11T18:04:17.150Z,3.30
2023-12-11T18:06:44.195Z,3.20
2023-12-11T18:09:11.100Z,3.10
2023-12-11T18:11:38.011Z,3.10
2023-12-11T18:14:04.914Z,3.10
2023-12-11T18:16:33.631Z,3.20
2023-12-11T18:19:00.840Z,3.20
2023-12-11T18:21:27.945Z,3.30
2023-12-11T18:23:54.910Z,3.40
2023-12-11T18:26:21.795Z,3.40
2023-12-11T18:28:48.728Z,3.40
2023-12-11T18:31:15.663Z,3.40
2023-12-11T18:33:42.698Z,3.40
2023-12-11T18:36:10.139Z,3.40
2023-12-11T18:38:37.795Z,3.40
2023-12-11T18:41:05.620Z,3.40
2023-12-11T18:43:32.597Z,3.50
2023-12-11T18:45:59.539Z,3.50
2023-12-11T18:48:27.077Z,3.50
2023-12-11T18:50:54.240Z,3.50
2023-12-11T18:53:22.124Z,3.50
2023-12-11T18:56:01.489Z,3.50
2023-12-11T18:58:29.744Z,3.50
2023-12-11T19:00:57.297Z,3.50
2023-12-11T19:03:24.540Z,3.50
2023-12-11T19:05:51.593Z,3.50
2023-12-11T19:08:18.853Z,3.50
2023-12-11T19:10:45.714Z,3.50
2023-12-11T19:13:12.795Z,3.50
2023-12-11T19:15:41.459Z,3.50
2023-12-11T19:18:08.705Z,3.40
2023-12-11T19:20:35.825Z,3.30
2023-12-11T19:23:03.013Z,3.30
2023-12-11T19:25:30.259Z,3.40
2023-12-11T19:27:57.264Z,3.40
2023-12-11T19:30:25.680Z,3.40
2023-12-11T19:32:52.667Z,3.40
2023-12-11T19:35:19.872Z,3.50
2023-12-11T19:37:47.228Z,3.30
2023-12-11T19:40:14.458Z,3.20
2023-12-11T19:42:48.455Z,3.20
2023-12-11T19:45:16.660Z,3.20
2023-12-11T19:47:45.992Z,3.20
2023-12-11T19:50:13.250Z,3.20
2023-12-11T19:52:50.337Z,3.30
2023-12-11T19:55:19.027Z,3.30
2023-12-11T19:57:46.081Z,3.40
2023-12-11T20:00:13.596Z,3.20
2023-12-11T20:02:40.499Z,3.20
2023-12-11T20:05:07.711Z,3.20
2023-12-11T20:07:35.019Z,3.20
2023-12-11T20:10:02.726Z,3.20
2023-12-11T20:12:34.760Z,3.20
2023-12-11T20:15:01.781Z,3.20
2023-12-11T20:17:28.804Z,3.10
2023-12-11T20:19:58.720Z,3.10
2023-12-11T20:22:25.698Z,3.10
2023-12-11T20:24:52.707Z,3.10
2023-12-11T20:27:19.625Z,3.10
2023-12-11T20:29:46.589Z,3.10
2023-12-11T20:32:13.657Z,3.10
2023-12-11T20:34:40.788Z,3.10
2023-12-11T20:37:09.559Z,3.10
2023-12-11T20:39:36.809Z,3.10
2023-12-11T20:42:03.973Z,3.00
2023-12-11T20:44:30.910Z,3.00
2023-12-11T20:46:57.868Z,2.90
2023-12-11T20:49:24.832Z,2.90
2023-12-11T20:51:52.122Z,3.00
2023-12-11T20:54:19.115Z,3.00
2023-12-11T20:56:45.979Z,3.10
2023-12-11T20:59:12.934Z,3.10
2023-12-11T21:01:40.207Z,3.00
2023-12-11T21:04:08.844Z,3.00
2023-12-11T21:06:36.085Z,3.10
2023-12-11T21:09:08.726Z,3.10
2023-12-11T21:11:36.688Z,3.10
2023-12-11T21:14:04.966Z,3.10
2023-12-11T21:16:34.887Z,3.00
2023-12-11T21:19:02.254Z,3.00
2023-12-11T21:21:29.305Z,3.10
2023-12-11T21:23:56.217Z,3.10
2023-12-11T21:26:25.416Z,3.10
2023-12-11T21:28:54.368Z,3.00
2023-12-11T21:31:28.390Z,3.00
2023-12-11T21:33:56.299Z,3.00
2023-12-11T21:36:28.773Z,3.10
2023-12-11T21:38:55.928Z,3.10
2023-12-11T21:41:22.849Z,3.20
2023-12-11T21:43:51.718Z,3.20
2023-12-11T21:46:19.619Z,3.20
2023-12-11T21:48:48.209Z,3.20
2023-12-11T21:51:16.919Z,3.20
2023-12-11T21:53:44.459Z,3.20
2023-12-11T21:56:11.804Z,3.20
2023-12-11T21:58:38.864Z,3.10
2023-12-11T22:01:05.980Z,3.10
2023-12-11T22:03:33.118Z,3.10
2023-12-11T22:06:00.245Z,3.10
2023-12-11T22:08:27.800Z,3.10
2023-12-11T22:10:55.040Z,3.10
2023-12-11T22:13:22.194Z,3.10
2023-12-11T22:15:49.256Z,3.20
2023-12-11T22:18:16.325Z,3.20
2023-12-11T22:20:44.283Z,3.20
2023-12-11T22:23:12.165Z,3.20
2023-12-11T22:25:39.212Z,3.20
2023-12-11T22:28:06.237Z,3.20
2023-12-11T22:30:33.194Z,3.20
2023-12-11T22:33:00.571Z,3.10
2023-12-11T22:35:27.955Z,3.00
2023-12-11T22:37:54.935Z,3.10
2023-12-11T22:40:21.988Z,3.00
2023-12-11T22:42:49.169Z,3.00
2023-12-11T22:45:17.918Z,3.10
2023-12-11T22:47:45.162Z,3.10
2023-12-11T22:50:12.254Z,3.20
2023-12-11T22:52:39.300Z,3.20
2023-12-11T22:55:06.874Z,3.30
2023-12-11T22:57:34.180Z,3.20
2023-12-11T23:00:01.327Z,3.30
2023-12-11T23:02:28.311Z,3.20
2023-12-11T23:04:57.040Z,3.10
2023-12-11T23:07:24.408Z,3.10
2023-12-11T23:09:51.450Z,3.00
2023-12-11T23:12:18.631Z,3.00
2023-12-11T23:14:45.840Z,2.90
2023-12-11T23:17:12.770Z,3.00
2023-12-11T23:19:39.900Z,3.00
2023-12-11T23:22:06.982Z,3.00
2023-12-11T23:24:33.904Z,3.00
2023-12-11T23:27:01.033Z,3.10
2023-12-11T23:29:28.130Z,3.10
2023-12-11T23:31:55.133Z,3.10
2023-12-11T23:34:22.111Z,3.10
2023-12-11T23:36:49.159Z,3.00
2023-12-11T23:39:16.056Z,3.00
2023-12-11T23:41:44.832Z,2.90
2023-12-11T23:44:11.883Z,3.00
2023-12-11T23:46:39.070Z,3.00
2023-12-11T23:49:06.357Z,3.00
2023-12-11T23:51:33.525Z,3.10
2023-12-11T23:54:00.823Z,3.10
2023-12-11T23:56:27.736Z,3.00
2023-12-11T23:58:54.655Z,3.00
